createdAt,value
2022-08-23T00:00:20.170Z,18.37
2022-08-23T00:05:23.158Z,18.34
2022-08-23T00:10:26.010Z,18.31
2022-08-23T00:15:29.520Z,18.31
2022-08-23T00:20:32.633Z,18.26
2022-08-23T00:25:35.567Z,18.19
2022-08-23T00:30:38.439Z,18.15
2022-08-23T00:35:41.270Z,18.10
2022-08-23T00:40:47.553Z,18.11
2022-08-23T00:46:46.584Z,18.07
2022-08-23T00:52:25.149Z,18.03
2022-08-23T00:57:29.273Z,17.98
2022-08-23T01:02:32.308Z,18.03
2022-08-23T01:07:54.650Z,18.05
2022-08-23T01:13:23.947Z,18.09
2022-08-23T01:18:30.419Z,18.10
2022-08-23T01:23:44.692Z,18.10
2022-08-23T01:28:47.849Z,18.19
2022-08-23T01:34:00.262Z,18.26
2022-08-23T01:39:05.919Z,18.31
2022-08-23T01:44:09.515Z,18.34
2022-08-23T01:49:13.426Z,18.35
2022-08-23T01:54:16.687Z,18.34
2022-08-23T01:59:19.896Z,18.39
2022-08-23T02:04:22.858Z,18.39
2022-08-23T02:09:25.857Z,18.40
2022-08-23T02:14:28.998Z,18.40
2022-08-23T02:19:35.038Z,18.40
2022-08-23T02:24:46.751Z,18.42
2022-08-23T02:29:50.359Z,18.45
2022-08-23T02:35:04.970Z,18.48
2022-08-23T02:40:09.921Z,18.48
2022-08-23T02:45:13.250Z,18.48
2022-08-23T02:50:16.093Z,18.49
2022-08-23T02:55:20.626Z,18.52
2022-08-23T03:00:23.754Z,18.53
2022-08-23T03:05:26.929Z,18.58
2022-08-23T03:10:29.981Z,18.58
2022-08-23T03:15:33.371Z,18.58
2022-08-23T03:20:37.254Z,18.60
2022-08-23T03:25:40.598Z,18.59
2022-08-23T03:30:43.537Z,18.64
2022-08-23T03:35:47.662Z,18.64
2022-08-23T03:40:52.646Z,18.66
2022-08-23T03:45:55.829Z,18.66
2022-08-23T03:50:58.799Z,18.64
2022-08-23T03:56:01.772Z,18.62
2022-08-23T04:01:05.569Z,18.60
2022-08-23T04:06:08.470Z,18.57
2022-08-23T04:11:13.415Z,18.56
2022-08-23T04:16:19.002Z,18.56
2022-08-23T04:21:23.565Z,18.57
2022-08-23T04:26:30.177Z,18.54
2022-08-23T04:31:34.647Z,18.54
2022-08-23T04:36:44.781Z,18.57
2022-08-23T04:42:14.963Z,18.58
2022-08-23T04:47:18.267Z,18.60
2022-08-23T04:52:21.209Z,18.61
2022-08-23T04:57:24.141Z,18.62
2022-08-23T05:02:29.809Z,18.64
2022-08-23T05:07:42.086Z,18.64
2022-08-23T05:12:47.274Z,18.67
2022-08-23T05:17:50.230Z,18.67
2022-08-23T05:22:54.478Z,18.68
2022-08-23T05:27:57.571Z,18.73
2022-08-23T05:33:01.066Z,18.78
2022-08-23T05:38:05.572Z,18.79
2022-08-23T05:43:08.450Z,18.81
2022-08-23T05:48:12.965Z,18.87
2022-08-23T05:58:32.778Z,18.90
2022-08-23T06:03:36.571Z,18.92
2022-08-23T06:08:40.367Z,18.92
2022-08-23T06:13:46.860Z,18.93
2022-08-23T06:18:50.779Z,18.90
2022-08-23T06:23:53.685Z,18.91
2022-08-23T06:28:59.473Z,18.93
2022-08-23T06:34:02.650Z,18.89
2022-08-23T06:39:07.728Z,18.89
2022-08-23T06:44:10.707Z,18.93
2022-08-23T06:49:13.927Z,19.01
2022-08-23T06:54:20.709Z,19.05
2022-08-23T06:59:23.914Z,19.09
2022-08-23T07:04:32.904Z,19.16
2022-08-23T07:09:36.510Z,19.23
2022-08-23T07:14:39.701Z,19.29
2022-08-23T07:19:44.247Z,19.33
2022-08-23T07:24:48.704Z,19.36
2022-08-23T07:29:51.650Z,19.41
2022-08-23T07:34:54.629Z,19.45
2022-08-23T07:39:58.581Z,19.47
2022-08-23T07:45:02.911Z,19.59
2022-08-23T07:50:07.028Z,19.63
2022-08-23T07:55:10.143Z,19.73
2022-08-23T08:00:13.476Z,19.87
2022-08-23T08:05:21.472Z,20.02
2022-08-23T08:10:25.175Z,20.15
2022-08-23T08:15:28.041Z,20.18
2022-08-23T08:20:35.193Z,20.13
2022-08-23T08:25:38.113Z,20.16
2022-08-23T08:30:41.244Z,20.26
2022-08-23T08:35:57.628Z,20.42
2022-08-23T08:41:28.948Z,20.60
2022-08-23T08:46:53.420Z,20.80
2022-08-23T08:52:22.286Z,20.93
2022-08-23T08:57:27.838Z,21.00
2022-08-23T09:02:35.002Z,21.06
2022-08-23T09:08:17.806Z,21.25
2022-08-23T09:14:22.729Z,21.43
2022-08-23T09:19:25.965Z,21.50
2022-08-23T09:24:30.656Z,21.53
2022-08-23T09:29:37.451Z,21.59
2022-08-23T09:34:43.093Z,21.67
2022-08-23T09:40:17.555Z,21.75
2022-08-23T09:45:38.472Z,21.86
2022-08-23T09:50:58.306Z,22.02
2022-08-23T09:56:18.004Z,22.13
2022-08-23T10:01:26.095Z,22.13
2022-08-23T10:06:34.244Z,22.08
2022-08-23T10:11:45.033Z,22.14
2022-08-23T10:17:17.890Z,22.14
2022-08-23T10:22:24.653Z,22.14
2022-08-23T10:28:02.947Z,22.09
2022-08-23T10:33:18.639Z,22.04
2022-08-23T10:38:46.206Z,22.04
2022-08-23T10:43:54.629Z,22.07
2022-08-23T10:49:03.079Z,22.23
2022-08-23T10:54:10.098Z,22.46
2022-08-23T10:59:24.027Z,22.75
2022-08-23T11:04:36.621Z,22.98
2022-08-23T11:10:16.870Z,23.17
2022-08-23T11:15:44.625Z,23.34
2022-08-23T11:20:51.070Z,23.47
2022-08-23T11:25:53.823Z,23.48
2022-08-23T11:31:00.064Z,23.55
2022-08-23T11:36:11.410Z,23.65
2022-08-23T11:41:20.252Z,23.69
2022-08-23T11:46:26.900Z,23.69
2022-08-23T11:52:05.946Z,23.68
2022-08-23T11:57:48.487Z,23.57
2022-08-23T12:03:09.497Z,23.70
2022-08-23T12:08:13.165Z,23.90
2022-08-23T12:13:22.036Z,24.02
2022-08-23T12:18:25.926Z,24.18
2022-08-23T12:23:30.898Z,24.18
2022-08-23T12:28:42.847Z,24.05
2022-08-23T12:34:22.607Z,23.93
2022-08-23T12:39:39.626Z,23.95
2022-08-23T12:44:45.889Z,23.99
2022-08-23T12:50:32.538Z,23.92
2022-08-23T12:55:41.535Z,23.75
2022-08-23T13:01:01.603Z,23.57
2022-08-23T13:06:12.330Z,23.52
2022-08-23T13:11:21.173Z,23.64
2022-08-23T13:16:42.419Z,23.65
2022-08-23T13:21:46.163Z,23.83
2022-08-23T13:26:49.534Z,23.97
2022-08-23T13:32:05.732Z,24.00
2022-08-23T13:37:29.551Z,23.97
2022-08-23T13:42:51.119Z,23.90
2022-08-23T13:48:15.842Z,24.08
2022-08-23T13:53:19.182Z,24.34
2022-08-23T13:58:34.836Z,24.34
2022-08-23T14:03:38.426Z,24.16
2022-08-23T14:08:41.410Z,23.98
2022-08-23T14:13:47.974Z,24.11
2022-08-23T14:24:14.552Z,24.15
2022-08-23T14:29:17.366Z,24.08
2022-08-23T14:34:25.384Z,23.94
2022-08-23T14:39:28.366Z,23.87
2022-08-23T14:44:35.953Z,23.92
2022-08-23T14:49:39.530Z,24.02
2022-08-23T14:54:42.650Z,24.23
2022-08-23T14:59:45.830Z,24.38
2022-08-23T15:04:48.775Z,24.41
2022-08-23T15:09:56.612Z,24.54
2022-08-23T15:14:59.526Z,24.55
2022-08-23T15:20:02.940Z,24.53
2022-08-23T15:25:06.378Z,24.60
2022-08-23T15:30:11.373Z,24.57
2022-08-23T15:35:15.295Z,24.45
2022-08-23T15:40:20.179Z,24.36
2022-08-23T15:45:23.372Z,24.33
2022-08-23T15:50:32.965Z,24.22
2022-08-23T15:55:35.727Z,24.03
2022-08-23T16:00:39.498Z,23.85
2022-08-23T16:05:46.464Z,23.66
2022-08-23T16:10:49.551Z,23.40
2022-08-23T16:15:53.064Z,23.19
2022-08-23T16:20:55.950Z,23.01
2022-08-23T16:26:01.227Z,22.87
2022-08-23T16:31:04.647Z,22.76
2022-08-23T16:36:08.783Z,22.62
2022-08-23T16:41:13.607Z,22.50
2022-08-23T16:46:18.004Z,22.31
2022-08-23T16:51:21.952Z,22.13
2022-08-23T16:56:24.812Z,21.98
2022-08-23T17:01:29.141Z,21.84
2022-08-23T17:06:32.585Z,21.68
2022-08-23T17:11:37.856Z,21.53
2022-08-23T17:16:42.490Z,21.39
2022-08-23T17:21:45.548Z,21.26
2022-08-23T17:26:49.763Z,21.16
2022-08-23T17:31:52.786Z,21.05
2022-08-23T17:36:56.814Z,20.97
2022-08-23T17:42:00.017Z,20.88
2022-08-23T17:47:07.667Z,20.77
2022-08-23T17:52:12.241Z,20.70
2022-08-23T17:57:15.202Z,20.62
2022-08-23T18:02:20.736Z,20.56
2022-08-23T18:07:24.340Z,20.47
2022-08-23T18:12:27.673Z,20.41
2022-08-23T18:17:32.420Z,20.36
2022-08-23T18:22:37.289Z,20.31
2022-08-23T18:27:58.980Z,20.26
2022-08-23T18:33:02.768Z,20.23
2022-08-23T18:38:06.428Z,20.20
2022-08-23T18:43:09.453Z,20.13
2022-08-23T18:48:12.619Z,20.13
2022-08-23T18:53:17.981Z,20.10
2022-08-23T18:58:21.548Z,20.09
2022-08-23T19:03:25.844Z,20.00
2022-08-23T19:08:28.668Z,20.00
2022-08-23T19:13:33.222Z,19.94
2022-08-23T19:18:36.132Z,19.90
2022-08-23T19:23:39.021Z,19.82
2022-08-23T19:28:42.918Z,19.74
2022-08-23T19:33:45.870Z,19.66
2022-08-23T19:38:51.036Z,19.61
2022-08-23T19:43:54.139Z,19.59
2022-08-23T19:48:57.191Z,19.52
2022-08-23T19:54:09.898Z,19.48
2022-08-23T19:59:30.390Z,19.44
2022-08-23T20:04:34.183Z,19.42
2022-08-23T20:09:37.008Z,19.42
2022-08-23T20:14:39.807Z,19.40
2022-08-23T20:19:43.185Z,19.39
2022-08-23T20:24:51.951Z,19.39
2022-08-23T20:29:55.532Z,19.39
2022-08-23T20:34:59.303Z,19.41
2022-08-23T20:40:02.971Z,19.39
2022-08-23T20:45:06.750Z,19.42
2022-08-23T20:50:09.829Z,19.41
2022-08-23T20:55:13.362Z,19.41
2022-08-23T21:00:16.929Z,19.41
2022-08-23T21:05:19.865Z,19.39
2022-08-23T21:10:22.976Z,19.39
2022-08-23T21:15:25.892Z,19.37
2022-08-23T21:20:28.748Z,19.36
2022-08-23T21:25:32.257Z,19.38
2022-08-23T21:30:35.420Z,19.34
2022-08-23T21:35:39.018Z,19.33
2022-08-23T21:40:42.568Z,19.28
2022-08-23T21:45:45.554Z,19.28
2022-08-23T21:50:48.675Z,19.27
2022-08-23T21:55:52.022Z,19.23
2022-08-23T22:00:55.908Z,19.21
2022-08-23T22:05:58.879Z,19.18
2022-08-23T22:11:07.455Z,19.15
2022-08-23T22:16:12.154Z,19.11
2022-08-23T22:21:15.267Z,19.06
2022-08-23T22:26:18.376Z,19.05
2022-08-23T22:31:21.963Z,18.99
2022-08-23T22:36:25.227Z,18.92
2022-08-23T22:41:30.257Z,18.84
2022-08-23T22:46:35.724Z,18.76
2022-08-23T22:51:38.831Z,18.68
2022-08-23T22:56:50.837Z,18.63
2022-08-23T23:02:01.567Z,18.58
2022-08-23T23:07:06.367Z,18.51
2022-08-23T23:12:09.385Z,18.46
2022-08-23T23:17:29.942Z,18.42
2022-08-23T23:22:47.474Z,18.42
2022-08-23T23:27:51.249Z,18.44
2022-08-23T23:32:54.415Z,18.43
2022-08-23T23:37:58.467Z,18.41
2022-08-23T23:43:01.927Z,18.36
2022-08-23T23:48:07.683Z,18.31
2022-08-23T23:53:11.793Z,18.34
2022-08-23T23:58:14.825Z,18.34
